Time;durP1;ratioP1;P1;durP2;ratioP2;P2;SDS_P1;SDS_P2;PMS_P1;PMS_P2;Temp;Humidity;BMP_temperature;BMP_pressure;BME280_temperature;BME280_humidity;BME280_pressure;Samples;Min_cycle;Max_cycle;Signal;HPM_P1;HPM_P2
2022/08/23 00:01:46;;;;;;;0.20;0.20;;;;;;;;;;5038899;28;20083;-76
2022/08/23 00:04:17;;;;;;;0.28;0.28;;;;;;;;;;5019032;28;20449;-75
2022/08/23 00:06:44;;;;;;;0.20;0.20;;;;;;;;;;5053046;28;20044;-75
2022/08/23 00:09:10;;;;;;;2.20;0.75;;;;;;;;;;5034749;28;20029;-75
2022/08/23 00:11:36;;;;;;;0.20;0.20;;;;;;;;;;5053028;28;20083;-75
2022/08/23 00:14:07;;;;;;;0.20;0.20;;;;;;;;;;5053132;28;20096;-74
2022/08/23 00:16:34;;;;;;;3.83;2.75;;;;;;;;;;5034944;28;20039;-74
2022/08/23 00:19:00;;;;;;;0.30;0.30;;;;;;;;;;5034988;28;20032;-76
2022/08/23 00:21:26;;;;;;;0.30;0.30;;;;;;;;;;5054607;28;20124;-76
2022/08/23 00:23:51;;;;;;;0.20;0.20;;;;;;;;;;5038904;28;20436;-76
2022/08/23 00:26:19;;;;;;;0.20;0.20;;;;;;;;;;5056545;28;20120;-76
2022/08/23 00:28:45;;;;;;;0.40;0.40;;;;;;;;;;5038803;28;20037;-76
2022/08/23 00:31:11;;;;;;;0.20;0.20;;;;;;;;;;5056826;28;20075;-76
2022/08/23 00:33:37;;;;;;;0.20;0.20;;;;;;;;;;5056399;28;20092;-74
2022/08/23 00:36:03;;;;;;;0.30;0.30;;;;;;;;;;5038914;28;20039;-71
2022/08/23 00:38:29;;;;;;;1.15;1.15;;;;;;;;;;5038272;28;20036;-73
2022/08/23 00:40:55;;;;;;;0.20;0.20;;;;;;;;;;5056148;28;20055;-72
2022/08/23 00:49:19;;;;;;;0.20;0.20;;;;;;;;;;5056690;28;20033;-72
2022/08/23 00:51:50;;;;;;;0.20;0.20;;;;;;;;;;5038998;28;20518;-71
2022/08/23 00:54:17;;;;;;;0.20;0.20;;;;;;;;;;5058151;28;20433;-71
2022/08/23 00:56:43;;;;;;;0.28;0.28;;;;;;;;;;5056821;28;20039;-72
2022/08/23 00:59:10;;;;;;;0.20;0.20;;;;;;;;;;5039586;28;20464;-72
2022/08/23 01:01:36;;;;;;;27.10;2.25;;;;;;;;;;5055839;28;20159;-74
2022/08/23 01:04:02;;;;;;;0.30;0.30;;;;;;;;;;5056166;28;20040;-72
2022/08/23 01:06:31;;;;;;;0.20;0.20;;;;;;;;;;5056331;28;20013;-72
2022/08/23 01:08:59;;;;;;;2.15;2.05;;;;;;;;;;5055872;28;20421;-72
2022/08/23 01:11:31;;;;;;;0.20;0.20;;;;;;;;;;5055993;28;20056;-73
2022/08/23 01:14:10;;;;;;;0.20;0.20;;;;;;;;;;5021535;28;20036;-72
2022/08/23 01:16:44;;;;;;;0.28;0.28;;;;;;;;;;5038427;28;20021;-72
2022/08/23 01:19:18;;;;;;;0.20;0.20;;;;;;;;;;5038277;28;20095;-71
2022/08/23 01:21:54;;;;;;;0.20;0.20;;;;;;;;;;5055725;28;20029;-72
2022/08/23 01:24:20;;;;;;;0.20;0.20;;;;;;;;;;5055844;28;20090;-74
2022/08/23 01:26:46;;;;;;;0.20;0.20;;;;;;;;;;5037640;28;20070;-74
2022/08/23 01:29:12;;;;;;;0.20;0.20;;;;;;;;;;5037832;28;20104;-74
2022/08/23 01:31:38;;;;;;;0.30;0.30;;;;;;;;;;5055305;28;20049;-74
2022/08/23 01:34:05;;;;;;;0.28;0.28;;;;;;;;;;5055738;28;20068;-74
2022/08/23 01:36:31;;;;;;;0.30;0.30;;;;;;;;;;5037536;28;20041;-73
2022/08/23 01:38:58;;;;;;;0.20;0.20;;;;;;;;;;5037298;28;20040;-74
2022/08/23 01:41:24;;;;;;;0.20;0.20;;;;;;;;;;5055442;28;20049;-73
2022/08/23 01:43:50;;;;;;;0.20;0.20;;;;;;;;;;5037601;28;20116;-73
2022/08/23 01:46:18;;;;;;;0.22;0.22;;;;;;;;;;5037526;28;20035;-74
2022/08/23 01:48:45;;;;;;;0.20;0.20;;;;;;;;;;5037506;28;20029;-74
2022/08/23 01:51:12;;;;;;;0.10;0.10;;;;;;;;;;5037532;28;20366;-74
2022/08/23 01:53:39;;;;;;;1.95;1.67;;;;;;;;;;5037178;28;20111;-74
2022/08/23 01:56:06;;;;;;;0.17;0.17;;;;;;;;;;5037008;28;20029;-73
2022/08/23 01:58:35;;;;;;;0.52;0.52;;;;;;;;;;5021136;28;20041;-73
2022/08/23 02:01:03;;;;;;;0.20;0.20;;;;;;;;;;5055187;28;20040;-73
2022/08/23 02:03:32;;;;;;;0.22;0.22;;;;;;;;;;5037068;28;20029;-72
2022/08/23 02:05:58;;;;;;;0.22;0.22;;;;;;;;;;5037295;28;20029;-72
2022/08/23 02:11:14;;;;;;;0.75;0.60;;;;;;;;;;5054935;28;20116;-73
2022/08/23 02:13:40;;;;;;;3.38;3.17;;;;;;;;;;5036897;28;20032;-73
2022/08/23 02:16:08;;;;;;;0.30;0.30;;;;;;;;;;5036933;28;20025;-73
2022/08/23 02:18:35;;;;;;;0.20;0.20;;;;;;;;;;5053916;28;20040;-74
2022/08/23 02:21:01;;;;;;;0.20;0.20;;;;;;;;;;5054467;28;20051;-74
2022/08/23 02:23:27;;;;;;;0.22;0.22;;;;;;;;;;5036813;28;20486;-74
2022/08/23 02:25:53;;;;;;;0.20;0.20;;;;;;;;;;5054621;28;20476;-73
2022/08/23 02:28:20;;;;;;;3.30;2.47;;;;;;;;;;5036565;28;20120;-73
2022/08/23 02:30:48;;;;;;;0.30;0.30;;;;;;;;;;5054517;28;20064;-74
2022/08/23 02:33:15;;;;;;;0.20;0.20;;;;;;;;;;5054805;28;20079;-73
2022/08/23 02:35:41;;;;;;;7.03;4.95;;;;;;;;;;5054057;28;20033;-74
2022/08/23 02:38:08;;;;;;;0.20;0.20;;;;;;;;;;5054447;28;20031;-75
2022/08/23 02:40:34;;;;;;;0.50;0.50;;;;;;;;;;5054097;28;20060;-74
2022/08/23 02:43:01;;;;;;;0.20;0.20;;;;;;;;;;5036253;28;20056;-74
2022/08/23 02:45:29;;;;;;;0.20;0.20;;;;;;;;;;5053877;28;20066;-74
2022/08/23 02:47:57;;;;;;;0.20;0.20;;;;;;;;;;5035840;28;20051;-74
2022/08/23 02:50:35;;;;;;;0.30;0.30;;;;;;;;;;5036343;28;20033;-75
2022/08/23 02:53:03;;;;;;;0.20;0.20;;;;;;;;;;5019070;28;20071;-74
2022/08/23 02:55:32;;;;;;;0.10;0.10;;;;;;;;;;5054210;28;20498;-74
2022/08/23 02:58:00;;;;;;;0.22;0.22;;;;;;;;;;5036076;28;20380;-74
2022/08/23 03:00:26;;;;;;;0.20;0.20;;;;;;;;;;5053728;28;20048;-73
2022/08/23 03:02:52;;;;;;;0.90;0.90;;;;;;;;;;5049799;28;20021;-75
2022/08/23 03:05:19;;;;;;;0.70;0.70;;;;;;;;;;5032230;28;20166;-72
2022/08/23 03:07:45;;;;;;;0.20;0.20;;;;;;;;;;5032093;28;20036;-74
2022/08/23 03:10:12;;;;;;;0.28;0.28;;;;;;;;;;5049823;28;20021;-73
2022/08/23 03:12:44;;;;;;;0.20;0.20;;;;;;;;;;5031823;28;20472;-74
2022/08/23 03:15:10;;;;;;;0.22;0.22;;;;;;;;;;5050264;28;20017;-74
2022/08/23 03:17:36;;;;;;;0.20;0.20;;;;;;;;;;5031957;28;20039;-74
2022/08/23 03:20:07;;;;;;;0.20;0.20;;;;;;;;;;5016233;28;20033;-73
2022/08/23 03:22:33;;;;;;;0.30;0.30;;;;;;;;;;5049699;28;20127;-74
2022/08/23 03:25:00;;;;;;;0.65;0.65;;;;;;;;;;5032301;28;20104;-78
2022/08/23 03:27:36;;;;;;;0.30;0.30;;;;;;;;;;5032451;28;20033;-74
2022/08/23 03:30:04;;;;;;;0.40;0.40;;;;;;;;;;5049669;28;20124;-76
2022/08/23 03:32:31;;;;;;;0.32;0.32;;;;;;;;;;5031790;28;20090;-75
2022/08/23 03:34:57;;;;;;;0.28;0.28;;;;;;;;;;5031891;28;20025;-77
2022/08/23 03:37:24;;;;;;;0.85;0.85;;;;;;;;;;5032192;28;20041;-74
2022/08/23 03:39:51;;;;;;;0.20;0.20;;;;;;;;;;5031572;28;20503;-74
2022/08/23 03:42:18;;;;;;;0.20;0.20;;;;;;;;;;5049592;28;20074;-73
2022/08/23 03:44:48;;;;;;;0.30;0.30;;;;;;;;;;5031240;28;20032;-73
2022/08/23 03:47:17;;;;;;;0.30;0.30;;;;;;;;;;5031780;28;20035;-76
2022/08/23 03:49:45;;;;;;;0.57;0.57;;;;;;;;;;5049730;28;20056;-75
2022/08/23 03:52:12;;;;;;;0.20;0.20;;;;;;;;;;5049556;28;20052;-74
2022/08/23 03:54:38;;;;;;;0.30;0.30;;;;;;;;;;5032029;28;20021;-73
2022/08/23 03:57:08;;;;;;;0.20;0.20;;;;;;;;;;5035794;28;20049;-75
2022/08/23 03:59:37;;;;;;;0.20;0.20;;;;;;;;;;5019403;28;20426;-78
2022/08/23 04:02:07;;;;;;;0.30;0.30;;;;;;;;;;5035116;28;20324;-74
2022/08/23 04:04:32;;;;;;;0.20;0.20;;;;;;;;;;5053262;28;20052;-79
2022/08/23 04:07:21;;;;;;;0.17;0.17;;;;;;;;;;5052390;28;20460;-75
2022/08/23 04:09:51;;;;;;;0.20;0.20;;;;;;;;;;5053263;28;20029;-73
2022/08/23 04:12:18;;;;;;;0.32;0.32;;;;;;;;;;5035191;28;20057;-74
2022/08/23 04:14:45;;;;;;;0.20;0.20;;;;;;;;;;5035038;28;20032;-76
2022/08/23 04:17:13;;;;;;;7.82;7.20;;;;;;;;;;5053066;28;20064;-76
2022/08/23 04:19:40;;;;;;;0.20;0.20;;;;;;;;;;5052989;28;20025;-77
2022/08/23 04:22:10;;;;;;;0.20;0.20;;;;;;;;;;5053106;28;20387;-75
2022/08/23 04:24:39;;;;;;;0.20;0.20;;;;;;;;;;5034767;28;20024;-75
2022/08/23 04:27:05;;;;;;;0.15;0.15;;;;;;;;;;5052576;28;20082;-73
2022/08/23 04:29:32;;;;;;;0.20;0.20;;;;;;;;;;5052715;28;20511;-74
2022/08/23 04:31:59;;;;;;;0.57;0.57;;;;;;;;;;5052467;28;20040;-73
2022/08/23 04:34:26;;;;;;;0.20;0.20;;;;;;;;;;5052077;28;20024;-73
2022/08/23 04:36:53;;;;;;;0.20;0.20;;;;;;;;;;5032568;28;20033;-74
2022/08/23 04:39:19;;;;;;;0.20;0.20;;;;;;;;;;5014998;28;20103;-78
2022/08/23 04:44:30;;;;;;;0.20;0.20;;;;;;;;;;5052116;28;20048;-74
2022/08/23 04:46:59;;;;;;;0.30;0.30;;;;;;;;;;5033800;28;20082;-74
2022/08/23 04:49:27;;;;;;;0.20;0.20;;;;;;;;;;5051809;28;20068;-74
2022/08/23 04:51:52;;;;;;;8.25;7.50;;;;;;;;;;5034583;28;20397;-73
2022/08/23 04:54:19;;;;;;;0.20;0.20;;;;;;;;;;5034766;28;20037;-74
2022/08/23 04:57:14;;;;;;;0.77;0.77;;;;;;;;;;5034044;28;20120;-72
2022/08/23 04:59:41;;;;;;;0.30;0.30;;;;;;;;;;5018339;28;20037;-75
2022/08/23 05:02:07;;;;;;;0.20;0.20;;;;;;;;;;5052260;28;20112;-73
2022/08/23 05:04:33;;;;;;;0.40;0.40;;;;;;;;;;5051851;28;20108;-77
2022/08/23 05:06:59;;;;;;;0.20;0.20;;;;;;;;;;5031595;28;20060;-74
2022/08/23 05:09:25;;;;;;;0.17;0.17;;;;;;;;;;5031658;28;20039;-75
2022/08/23 05:11:52;;;;;;;0.50;0.50;;;;;;;;;;5034418;28;20021;-75
2022/08/23 05:14:18;;;;;;;0.20;0.20;;;;;;;;;;5034383;28;20072;-74
2022/08/23 05:16:43;;;;;;;12.38;11.63;;;;;;;;;;5034008;28;20079;-75
2022/08/23 05:19:10;;;;;;;0.20;0.20;;;;;;;;;;5052621;28;20032;-80
2022/08/23 05:21:41;;;;;;;2.15;2.08;;;;;;;;;;5051176;28;20119;-73
2022/08/23 05:24:07;;;;;;;0.20;0.20;;;;;;;;;;5052166;28;20492;-73
2022/08/23 05:26:33;;;;;;;0.20;0.20;;;;;;;;;;5051131;28;20514;-74
2022/08/23 05:28:59;;;;;;;0.20;0.20;;;;;;;;;;5033451;28;20072;-77
2022/08/23 05:31:31;;;;;;;0.30;0.30;;;;;;;;;;5051689;28;20087;-76
2022/08/23 05:34:00;;;;;;;0.20;0.20;;;;;;;;;;5051974;28;20040;-73
2022/08/23 05:36:46;;;;;;;0.40;0.40;;;;;;;;;;5050524;28;20028;-76
2022/08/23 05:39:14;;;;;;;0.20;0.20;;;;;;;;;;5051085;28;20090;-74
2022/08/23 05:41:41;;;;;;;0.95;0.95;;;;;;;;;;5033571;28;20033;-74
2022/08/23 05:44:12;;;;;;;0.20;0.20;;;;;;;;;;5051308;28;20788;-72
2022/08/23 05:46:41;;;;;;;0.17;0.17;;;;;;;;;;5017567;28;20044;-77
2022/08/23 05:49:23;;;;;;;0.20;0.20;;;;;;;;;;5033167;28;20511;-72
2022/08/23 05:51:50;;;;;;;0.35;0.35;;;;;;;;;;5023372;28;20021;-72
2022/08/23 05:54:15;;;;;;;0.30;0.30;;;;;;;;;;5041646;28;20036;-74
2022/08/23 05:56:44;;;;;;;0.60;0.60;;;;;;;;;;5008482;28;20447;-74
2022/08/23 05:59:12;;;;;;;0.20;0.20;;;;;;;;;;5022367;28;20033;-73
2022/08/23 06:01:39;;;;;;;0.30;0.30;;;;;;;;;;5039990;28;20049;-75
2022/08/23 06:04:16;;;;;;;0.20;0.20;;;;;;;;;;5040136;28;20033;-77
2022/08/23 06:06:43;;;;;;;0.30;0.30;;;;;;;;;;5019958;28;20029;-74
2022/08/23 06:09:11;;;;;;;0.20;0.20;;;;;;;;;;5020876;28;20028;-74
2022/08/23 06:11:37;;;;;;;0.15;0.15;;;;;;;;;;5021856;28;20063;-74
2022/08/23 06:14:05;;;;;;;0.20;0.20;;;;;;;;;;5011388;28;20377;-74
2022/08/23 06:16:42;;;;;;;0.20;0.20;;;;;;;;;;5030959;28;20026;-73
2022/08/23 06:19:12;;;;;;;0.20;0.20;;;;;;;;;;5028321;28;20428;-74
2022/08/23 06:21:47;;;;;;;0.20;0.20;;;;;;;;;;5029666;28;20130;-74
2022/08/23 06:24:15;;;;;;;0.30;0.30;;;;;;;;;;4997686;28;20107;-75
2022/08/23 06:26:52;;;;;;;0.32;0.32;;;;;;;;;;5030381;28;20021;-76
2022/08/23 06:29:18;;;;;;;1.17;0.30;;;;;;;;;;5047155;28;20091;-73
2022/08/23 06:31:47;;;;;;;0.28;0.28;;;;;;;;;;5013958;28;20033;-75
2022/08/23 06:34:34;;;;;;;2.25;2.05;;;;;;;;;;5047637;28;20036;-74
2022/08/23 06:37:18;;;;;;;0.20;0.20;;;;;;;;;;5047532;28;20072;-75
2022/08/23 06:40:05;;;;;;;0.30;0.30;;;;;;;;;;5007691;28;20046;-74
2022/08/23 06:42:38;;;;;;;0.30;0.30;;;;;;;;;;4988057;28;20035;-74
2022/08/23 06:45:06;;;;;;;0.30;0.30;;;;;;;;;;4989319;28;20037;-76
2022/08/23 06:47:36;;;;;;;0.28;0.28;;;;;;;;;;4996029;28;20030;-78
2022/08/23 06:50:02;;;;;;;0.40;0.40;;;;;;;;;;4997994;28;20116;-73
2022/08/23 06:52:48;;;;;;;0.52;0.52;;;;;;;;;;4996021;28;20034;-74
2022/08/23 06:55:37;;;;;;;0.73;0.73;;;;;;;;;;4989335;28;20042;-74
2022/08/23 06:58:21;;;;;;;0.30;0.30;;;;;;;;;;5006736;28;20021;-74
2022/08/23 07:00:50;;;;;;;0.20;0.20;;;;;;;;;;5006962;28;20088;-75
2022/08/23 07:03:33;;;;;;;0.30;0.30;;;;;;;;;;5007687;28;20034;-76
2022/08/23 07:06:17;;;;;;;0.32;0.32;;;;;;;;;;5006199;28;20444;-74
2022/08/23 07:08:43;;;;;;;0.40;0.40;;;;;;;;;;5007017;28;20033;-73
2022/08/23 07:11:10;;;;;;;2.70;2.25;;;;;;;;;;5004794;28;20080;-74
2022/08/23 07:13:35;;;;;;;0.50;0.50;;;;;;;;;;4988696;28;20098;-78
2022/08/23 07:16:02;;;;;;;0.30;0.30;;;;;;;;;;4988944;28;20059;-74
2022/08/23 07:18:30;;;;;;;0.30;0.30;;;;;;;;;;4987658;28;20038;-79
2022/08/23 07:20:57;;;;;;;0.38;0.38;;;;;;;;;;4991940;28;20030;-78
2022/08/23 07:23:23;;;;;;;1.08;1.08;;;;;;;;;;5008978;28;20033;-75
2022/08/23 07:25:49;;;;;;;0.55;0.55;;;;;;;;;;5009066;28;20034;-79
2022/08/23 07:28:18;;;;;;;0.30;0.30;;;;;;;;;;4985895;28;20063;-76
2022/08/23 07:30:43;;;;;;;0.40;0.40;;;;;;;;;;5000175;28;20045;-80
2022/08/23 07:33:09;;;;;;;0.55;0.55;;;;;;;;;;5008785;28;20018;-85
2022/08/23 07:35:48;;;;;;;0.40;0.40;;;;;;;;;;5008415;28;20030;-80
2022/08/23 07:38:14;;;;;;;0.45;0.45;;;;;;;;;;5009370;28;20037;-76
2022/08/23 07:40:40;;;;;;;0.40;0.40;;;;;;;;;;5023175;28;20103;-78
2022/08/23 07:43:08;;;;;;;0.40;0.40;;;;;;;;;;5031372;28;20045;-75
2022/08/23 07:45:35;;;;;;;0.45;0.45;;;;;;;;;;5032028;28;20037;-78
2022/08/23 07:48:02;;;;;;;0.30;0.30;;;;;;;;;;5049494;28;20057;-79
2022/08/23 07:50:32;;;;;;;0.45;0.45;;;;;;;;;;5041715;28;20087;-72
2022/08/23 07:53:01;;;;;;;0.30;0.30;;;;;;;;;;5035533;28;20032;-78
2022/08/23 07:55:27;;;;;;;0.40;0.40;;;;;;;;;;5034734;28;20032;-83
2022/08/23 07:58:05;;;;;;;0.50;0.50;;;;;;;;;;5038283;28;20468;-76
2022/08/23 08:00:54;;;;;;;0.40;0.40;;;;;;;;;;5043628;28;20095;-80
2022/08/23 08:03:35;;;;;;;0.52;0.52;;;;;;;;;;5031430;28;20025;-80
2022/08/23 08:06:11;;;;;;;0.30;0.30;;;;;;;;;;5031746;28;20025;-79
2022/08/23 08:08:37;;;;;;;0.53;0.53;;;;;;;;;;5049152;28;20032;-77
2022/08/23 08:11:03;;;;;;;0.43;0.43;;;;;;;;;;5031622;28;20078;-82
2022/08/23 08:13:28;;;;;;;0.40;0.40;;;;;;;;;;5049753;28;20025;-77
2022/08/23 08:15:54;;;;;;;0.40;0.40;;;;;;;;;;5031303;28;20059;-79
2022/08/23 08:18:23;;;;;;;0.50;0.50;;;;;;;;;;5030960;28;20031;-74
2022/08/23 08:21:12;;;;;;;0.40;0.40;;;;;;;;;;5049447;28;20044;-77
2022/08/23 08:24:01;;;;;;;0.30;0.30;;;;;;;;;;5038072;28;20531;-76
2022/08/23 08:26:42;;;;;;;0.40;0.40;;;;;;;;;;5030900;28;20044;-79
2022/08/23 08:29:11;;;;;;;0.50;0.50;;;;;;;;;;5031293;28;20029;-80
2022/08/23 08:31:40;;;;;;;0.40;0.40;;;;;;;;;;5031416;28;20475;-76
2022/08/23 08:34:06;;;;;;;0.40;0.40;;;;;;;;;;5030990;28;20066;-78
2022/08/23 08:36:37;;;;;;;0.40;0.40;;;;;;;;;;5049231;28;20033;-78
2022/08/23 08:39:06;;;;;;;0.30;0.30;;;;;;;;;;5030285;28;20041;-77
2022/08/23 08:41:51;;;;;;;0.40;0.40;;;;;;;;;;5048414;28;20048;-79
2022/08/23 08:44:20;;;;;;;1.33;1.23;;;;;;;;;;5018249;28;20348;-77
2022/08/23 08:46:48;;;;;;;0.30;0.30;;;;;;;;;;5034938;28;20049;-77
2022/08/23 08:49:21;;;;;;;0.40;0.40;;;;;;;;;;5034976;28;20029;-76
2022/08/23 08:51:57;;;;;;;0.60;0.57;;;;;;;;;;5034778;28;20056;-77
2022/08/23 08:54:24;;;;;;;0.40;0.40;;;;;;;;;;5017901;28;20037;-74
2022/08/23 08:56:52;;;;;;;0.40;0.40;;;;;;;;;;5034707;28;20124;-79
2022/08/23 08:59:25;;;;;;;1.27;0.77;;;;;;;;;;5019191;28;20404;-85
2022/08/23 09:01:51;;;;;;;0.60;0.60;;;;;;;;;;5052968;28;20408;-76
2022/08/23 09:04:24;;;;;;;0.55;0.55;;;;;;;;;;5034886;28;20033;-74
2022/08/23 09:06:58;;;;;;;1.00;0.73;;;;;;;;;;5051527;28;20075;-78
2022/08/23 09:09:51;;;;;;;0.40;0.40;;;;;;;;;;5023713;28;20048;-80
2022/08/23 09:12:25;;;;;;;0.40;0.40;;;;;;;;;;5002424;28;20065;-79
2022/08/23 09:14:51;;;;;;;0.40;0.40;;;;;;;;;;5052096;28;20037;-77
2022/08/23 09:17:34;;;;;;;0.40;0.40;;;;;;;;;;5053759;28;20017;-80
2022/08/23 09:20:02;;;;;;;0.60;0.60;;;;;;;;;;5042803;28;20047;-80
2022/08/23 09:22:50;;;;;;;0.80;0.80;;;;;;;;;;5044063;28;20029;-81
2022/08/23 09:25:28;;;;;;;0.40;0.40;;;;;;;;;;5035954;28;20025;-86
2022/08/23 09:28:03;;;;;;;0.50;0.50;;;;;;;;;;5018755;28;20427;-74
2022/08/23 09:30:49;;;;;;;0.40;0.40;;;;;;;;;;5034070;28;20036;-76
2022/08/23 09:33:21;;;;;;;0.52;0.52;;;;;;;;;;5034399;28;20025;-78
2022/08/23 09:36:04;;;;;;;0.60;0.60;;;;;;;;;;5034975;28;20031;-77
2022/08/23 09:38:32;;;;;;;0.82;0.70;;;;;;;;;;5033355;28;20036;-77
2022/08/23 09:41:13;;;;;;;0.57;0.57;;;;;;;;;;5030270;28;20053;-79
2022/08/23 09:43:43;;;;;;;0.40;0.40;;;;;;;;;;5030427;28;20032;-79
2022/08/23 09:46:09;;;;;;;0.40;0.40;;;;;;;;;;5027079;28;20032;-79
2022/08/23 09:48:38;;;;;;;0.50;0.50;;;;;;;;;;5025428;28;20175;-78
2022/08/23 09:51:22;;;;;;;0.40;0.40;;;;;;;;;;5029521;28;20025;-78
2022/08/23 09:53:52;;;;;;;0.80;0.80;;;;;;;;;;5028510;28;20064;-79
2022/08/23 09:56:23;;;;;;;1.50;0.80;;;;;;;;;;5028042;28;20480;-79
2022/08/23 09:58:52;;;;;;;0.70;0.70;;;;;;;;;;5028584;28;20460;-79
2022/08/23 10:01:32;;;;;;;1.23;1.13;;;;;;;;;;5028485;28;20120;-78
2022/08/23 10:04:05;;;;;;;2.15;1.30;;;;;;;;;;5028171;28;20029;-77
2022/08/23 10:06:33;;;;;;;2.42;1.13;;;;;;;;;;5030899;28;20030;-80
2022/08/23 10:09:04;;;;;;;1.60;0.93;;;;;;;;;;5027650;28;20033;-78
2022/08/23 10:11:38;;;;;;;0.98;0.82;;;;;;;;;;5028078;28;20499;-79
2022/08/23 10:14:07;;;;;;;1.58;1.20;;;;;;;;;;5028520;28;20025;-78
2022/08/23 10:16:35;;;;;;;1.67;1.25;;;;;;;;;;5028966;28;20156;-77
2022/08/23 10:19:12;;;;;;;0.57;0.57;;;;;;;;;;5027622;28;20526;-78
2022/08/23 10:21:41;;;;;;;0.40;0.40;;;;;;;;;;5028001;28;20029;-80
2022/08/23 10:24:06;;;;;;;;;;;;;;;;;;5031643;28;20059;-79
2022/08/23 10:26:34;;;;;;;0.50;0.50;;;;;;;;;;5030603;28;19908;-80
2022/08/23 10:31:53;;;;;;;1.17;0.70;;;;;;;;;;5029986;28;20179;-74
2022/08/23 10:34:40;;;;;;;3.03;1.17;;;;;;;;;;5029131;28;20034;-76
2022/08/23 10:37:25;;;;;;;0.35;0.35;;;;;;;;;;5029783;28;20044;-78
2022/08/23 10:39:58;;;;;;;2.70;1.70;;;;;;;;;;5035825;28;20480;-80
2022/08/23 10:42:33;;;;;;;1.67;1.10;;;;;;;;;;5032399;28;20492;-79
2022/08/23 10:44:59;;;;;;;3.25;0.90;;;;;;;;;;5050272;28;20037;-81
2022/08/23 10:47:40;;;;;;;0.60;0.60;;;;;;;;;;5032444;28;20039;-80
2022/08/23 10:50:11;;;;;;;1.02;0.73;;;;;;;;;;5032577;28;20067;-79
2022/08/23 10:53:00;;;;;;;2.15;1.48;;;;;;;;;;5032329;28;20476;-75
2022/08/23 10:55:38;;;;;;;;;;;;;;;;;;5022582;28;20123;-79
2022/08/23 10:58:05;;;;;;;0.57;0.57;;;;;;;;;;5032426;28;19917;-81
2022/08/23 11:00:31;;;;;;;1.00;0.93;;;;;;;;;;5031936;28;20041;-80
2022/08/23 11:02:57;;;;;;;1.58;1.20;;;;;;;;;;5032020;28;20143;-77
2022/08/23 11:05:27;;;;;;;3.05;1.40;;;;;;;;;;5031675;28;20099;-80
2022/08/23 11:08:06;;;;;;;1.17;1.08;;;;;;;;;;5032304;28;20029;-80
2022/08/23 11:10:51;;;;;;;2.70;1.10;;;;;;;;;;5032066;28;20029;-80
2022/08/23 11:13:22;;;;;;;1.17;0.80;;;;;;;;;;5050235;28;20063;-75
2022/08/23 11:16:12;;;;;;;3.15;1.80;;;;;;;;;;5031785;28;20025;-79
2022/08/23 11:18:39;;;;;;;0.43;0.43;;;;;;;;;;5031852;28;20490;-79
2022/08/23 11:21:17;;;;;;;1.05;0.85;;;;;;;;;;5032034;28;20021;-80
2022/08/23 11:23:53;;;;;;;0.63;0.63;;;;;;;;;;5033020;28;20139;-80
2022/08/23 11:26:21;;;;;;;0.40;0.40;;;;;;;;;;5032033;28;20120;-81
2022/08/23 11:29:11;;;;;;;7.22;0.98;;;;;;;;;;5031949;28;20075;-79
2022/08/23 11:31:49;;;;;;;1.83;1.38;;;;;;;;;;5031957;28;20040;-73
2022/08/23 11:34:23;;;;;;;0.68;0.68;;;;;;;;;;5031888;28;20051;-75
2022/08/23 11:37:10;;;;;;;1.65;1.27;;;;;;;;;;5031967;28;20028;-79
2022/08/23 11:39:54;;;;;;;1.40;0.90;;;;;;;;;;5031294;28;20056;-79
2022/08/23 11:42:20;;;;;;;3.17;1.48;;;;;;;;;;5032576;28;20040;-79
2022/08/23 11:44:47;;;;;;;3.08;1.00;;;;;;;;;;5031758;28;20017;-81
2022/08/23 11:47:13;;;;;;;1.45;1.10;;;;;;;;;;5049874;28;20052;-81
2022/08/23 11:49:40;;;;;;;5.18;1.65;;;;;;;;;;5049720;28;20021;-81
2022/08/23 11:52:05;;;;;;;1.75;1.33;;;;;;;;;;5049618;28;20352;-81
2022/08/23 11:55:00;;;;;;;2.45;1.38;;;;;;;;;;5049299;28;20091;-79
2022/08/23 11:57:44;;;;;;;1.23;1.05;;;;;;;;;;5028208;28;20166;-80
2022/08/23 12:00:10;;;;;;;3.72;1.40;;;;;;;;;;5049129;28;20373;-78
2022/08/23 12:03:00;;;;;;;2.88;1.40;;;;;;;;;;5049773;28;20460;-80
2022/08/23 12:05:38;;;;;;;1.13;1.00;;;;;;;;;;5031235;28;20056;-79
2022/08/23 12:08:04;;;;;;;2.00;1.40;;;;;;;;;;5050063;28;20029;-80
2022/08/23 12:10:41;;;;;;;1.10;0.98;;;;;;;;;;5049029;28;20028;-80
2022/08/23 12:13:19;;;;;;;2.50;1.20;;;;;;;;;;5049814;28;20506;-78
2022/08/23 12:16:03;;;;;;;1.98;1.52;;;;;;;;;;5049781;28;20047;-80
2022/08/23 12:18:29;;;;;;;4.00;1.20;;;;;;;;;;5053392;28;20083;-74
2022/08/23 12:20:59;;;;;;;1.30;0.95;;;;;;;;;;5053352;28;20041;-75
2022/08/23 12:23:24;;;;;;;2.42;1.40;;;;;;;;;;5053555;28;20430;-77
2022/08/23 12:26:04;;;;;;;3.38;1.70;;;;;;;;;;5052976;28;20020;-80
2022/08/23 12:28:30;;;;;;;2.95;1.65;;;;;;;;;;5053233;28;20021;-81
2022/08/23 12:31:03;;;;;;;1.85;1.13;;;;;;;;;;5035057;28;20021;-81
2022/08/23 12:33:34;;;;;;;1.42;0.70;;;;;;;;;;5052888;28;20498;-81
2022/08/23 12:36:18;;;;;;;0.80;0.80;;;;;;;;;;5035893;28;20426;-80
2022/08/23 12:38:46;;;;;;;0.75;0.65;;;;;;;;;;5052371;28;20029;-79
2022/08/23 12:41:15;;;;;;;0.75;0.55;;;;;;;;;;5052647;28;20482;-79
2022/08/23 12:43:52;;;;;;;1.75;1.55;;;;;;;;;;5035230;28;20090;-78
2022/08/23 12:46:28;;;;;;;1.75;1.25;;;;;;;;;;5053414;28;20033;-80
2022/08/23 12:48:53;;;;;;;1.95;1.10;;;;;;;;;;5020032;28;20060;-79
2022/08/23 12:51:18;;;;;;;4.57;1.60;;;;;;;;;;5053868;28;20021;-79
2022/08/23 12:53:44;;;;;;;1.30;0.77;;;;;;;;;;5052726;28;20365;-80
2022/08/23 12:56:17;;;;;;;1.20;0.85;;;;;;;;;;5052662;28;20048;-77
2022/08/23 12:58:50;;;;;;;1.73;1.13;;;;;;;;;;5052035;28;20033;-79
2022/08/23 13:01:21;;;;;;;3.78;2.20;;;;;;;;;;5034316;28;20078;-78
2022/08/23 13:03:49;;;;;;;5.45;1.88;;;;;;;;;;5034488;28;20086;-77
2022/08/23 13:06:18;;;;;;;1.88;1.27;;;;;;;;;;5034210;28;20428;-77
2022/08/23 13:08:45;;;;;;;1.95;1.20;;;;;;;;;;5034403;28;20070;-80
2022/08/23 13:11:13;;;;;;;1.35;0.93;;;;;;;;;;5052462;28;20036;-80
2022/08/23 13:13:39;;;;;;;2.38;0.60;;;;;;;;;;5052325;28;20413;-78
2022/08/23 13:16:23;;;;;;;0.50;0.50;;;;;;;;;;5052657;28;20035;-81
2022/08/23 13:18:49;;;;;;;1.63;0.65;;;;;;;;;;5052087;28;20028;-81
2022/08/23 13:21:15;;;;;;;1.42;0.93;;;;;;;;;;5051966;28;20655;-78
2022/08/23 13:23:40;;;;;;;0.93;0.77;;;;;;;;;;5051845;28;20431;-78
2022/08/23 13:26:24;;;;;;;1.08;0.60;;;;;;;;;;5034098;28;20057;-80
2022/08/23 13:29:07;;;;;;;6.32;2.38;;;;;;;;;;5051849;28;20031;-81
2022/08/23 13:31:47;;;;;;;0.55;0.55;;;;;;;;;;5052116;28;20029;-79
2022/08/23 13:34:29;;;;;;;0.50;0.40;;;;;;;;;;5053104;28;20036;-79
2022/08/23 13:36:58;;;;;;;1.80;0.73;;;;;;;;;;5054795;28;20107;-78
2022/08/23 13:39:24;;;;;;;0.45;0.45;;;;;;;;;;5052456;28;20025;-80
2022/08/23 13:41:50;;;;;;;0.30;0.30;;;;;;;;;;5052319;28;20392;-79
2022/08/23 13:44:17;;;;;;;0.98;0.57;;;;;;;;;;5033671;28;20033;-75
2022/08/23 13:46:44;;;;;;;0.35;0.35;;;;;;;;;;5051361;28;20025;-77
2022/08/23 13:49:20;;;;;;;0.32;0.28;;;;;;;;;;5051926;28;20048;-80
2022/08/23 13:51:57;;;;;;;0.57;0.57;;;;;;;;;;5034010;28;20028;-78
2022/08/23 13:54:23;;;;;;;2.42;0.70;;;;;;;;;;5051441;28;20065;-80
2022/08/23 13:56:50;;;;;;;0.82;0.60;;;;;;;;;;5051239;28;20495;-80
2022/08/23 13:59:18;;;;;;;0.32;0.32;;;;;;;;;;5051494;28;20064;-81
2022/08/23 14:01:44;;;;;;;0.20;0.20;;;;;;;;;;5051551;28;20036;-78
2022/08/23 14:04:09;;;;;;;0.73;0.38;;;;;;;;;;5033273;28;20037;-78
2022/08/23 14:06:35;;;;;;;0.20;0.20;;;;;;;;;;5033299;28;20112;-81
2022/08/23 14:09:00;;;;;;;0.30;0.30;;;;;;;;;;5051200;28;20025;-79
2022/08/23 14:11:26;;;;;;;0.20;0.20;;;;;;;;;;5033252;28;20078;-79
2022/08/23 14:13:51;;;;;;;0.20;0.20;;;;;;;;;;5051145;28;20104;-79
2022/08/23 14:16:22;;;;;;;0.30;0.30;;;;;;;;;;5032880;28;20028;-81
2022/08/23 14:18:47;;;;;;;0.30;0.30;;;;;;;;;;5051089;28;20021;-80
2022/08/23 14:21:13;;;;;;;0.20;0.20;;;;;;;;;;5051054;28;20028;-79
2022/08/23 14:23:38;;;;;;;0.40;0.40;;;;;;;;;;5050613;28;20029;-77
2022/08/23 14:26:04;;;;;;;0.35;0.35;;;;;;;;;;5051039;28;20021;-80
2022/08/23 14:28:30;;;;;;;0.40;0.40;;;;;;;;;;5050160;28;20090;-79
2022/08/23 14:30:56;;;;;;;0.30;0.30;;;;;;;;;;5032769;28;20028;-79
2022/08/23 14:33:21;;;;;;;0.30;0.30;;;;;;;;;;5033176;28;20029;-80
2022/08/23 14:35:47;;;;;;;0.30;0.30;;;;;;;;;;5050346;28;20054;-80
2022/08/23 14:38:13;;;;;;;0.30;0.30;;;;;;;;;;5032981;28;20025;-80
2022/08/23 14:40:40;;;;;;;0.30;0.30;;;;;;;;;;5046762;28;20045;-79
2022/08/23 14:43:09;;;;;;;0.20;0.20;;;;;;;;;;5047242;28;20032;-79
2022/08/23 14:45:34;;;;;;;0.30;0.30;;;;;;;;;;5040137;28;20031;-78
2022/08/23 14:48:01;;;;;;;0.30;0.30;;;;;;;;;;5047944;28;20021;-79
2022/08/23 14:50:27;;;;;;;0.22;0.22;;;;;;;;;;5012499;28;20472;-78
2022/08/23 14:52:53;;;;;;;9.50;8.90;;;;;;;;;;5030336;28;20048;-77
2022/08/23 14:55:18;;;;;;;0.75;0.50;;;;;;;;;;5028090;28;20021;-78
2022/08/23 14:57:44;;;;;;;0.43;0.43;;;;;;;;;;5028843;28;20037;-79
2022/08/23 15:00:13;;;;;;;0.35;0.35;;;;;;;;;;5045030;28;20434;-78
2022/08/23 15:02:43;;;;;;;0.22;0.22;;;;;;;;;;5047787;28;20033;-79
2022/08/23 15:05:09;;;;;;;0.30;0.30;;;;;;;;;;5048476;28;20102;-80
2022/08/23 15:07:34;;;;;;;0.20;0.20;;;;;;;;;;5047986;28;20025;-80
2022/08/23 15:10:00;;;;;;;2.50;0.82;;;;;;;;;;5047127;28;20023;-78
2022/08/23 15:12:25;;;;;;;2.65;1.33;;;;;;;;;;5048858;28;20035;-78
2022/08/23 15:14:51;;;;;;;2.95;1.52;;;;;;;;;;5050032;28;20021;-79
2022/08/23 15:17:16;;;;;;;0.90;0.65;;;;;;;;;;5050189;28;20585;-77